Time;durP1;ratioP1;P1;durP2;ratioP2;P2;SDS_P1;SDS_P2;PMS_P1;PMS_P2;Temp;Humidity;BMP_temperature;BMP_pressure;BME280_temperature;BME280_humidity;BME280_pressure;Samples;Min_cycle;Max_cycle;Signal;HPM_P1;HPM_P2
2021/12/24 00:00:43;;;;;;;64.45;29.52;;;;;;;4.33;98.12;98681.66;5043642;28;20360;-86
2021/12/24 00:03:09;;;;;;;66.53;29.33;;;;;;;4.34;98.65;98677.31;5064279;28;20029;-84
2021/12/24 00:05:36;;;;;;;80.18;30.27;;;;;;;4.39;98.73;98682.19;5041655;28;20037;-86
2021/12/24 00:08:02;;;;;;;65.40;30.17;;;;;;;4.43;98.82;98675.84;5049725;28;20034;-85
2021/12/24 00:10:30;;;;;;;72.95;31.50;;;;;;;4.47;98.66;98683.31;5037293;28;20112;-86
2021/12/24 00:13:06;;;;;;;72.35;30.85;;;;;;;4.51;99.04;98691.72;5032519;28;20044;-87
2021/12/24 00:18:18;;;;;;;67.97;30.17;;;;;;;4.55;99.44;98688.81;5041929;28;20089;-87
2021/12/24 00:37:22;;;;;;;60.55;28.50;;;;;;;4.73;99.39;98670.31;5002127;28;20173;-87
2021/12/24 00:40:01;;;;;;;65.28;28.33;;;;;;;4.70;99.41;98652.34;5007877;28;20018;-87
2021/12/24 00:42:29;;;;;;;73.53;29.60;;;;;;;4.71;99.56;98664.41;5009153;28;20030;-87
2021/12/24 00:44:57;;;;;;;62.20;30.70;;;;;;;4.71;99.73;98667.00;4991291;28;20128;-87
2021/12/24 00:47:23;;;;;;;71.15;30.92;;;;;;;4.70;99.70;98658.38;4988373;28;20035;-88
2021/12/24 00:49:48;;;;;;;69.07;29.02;;;;;;;4.71;99.91;98675.63;4987874;28;20407;-88
2021/12/24 00:52:45;;;;;;;62.17;28.73;;;;;;;4.72;99.92;98673.88;4973440;28;20116;-87
2021/12/24 00:55:09;;;;;;;61.50;28.13;;;;;;;4.74;99.71;98674.56;4990188;28;20049;-86
2021/12/24 00:57:41;;;;;;;67.35;28.27;;;;;;;4.75;100.00;98665.88;4990386;28;20450;-85
2021/12/24 01:00:20;;;;;;;68.40;31.23;;;;;;;4.76;99.95;98667.53;4991012;28;20076;-86
2021/12/24 01:02:48;;;;;;;59.70;26.48;;;;;;;4.80;99.75;98658.56;5024794;28;20400;-87
2021/12/24 01:05:14;;;;;;;58.28;27.63;;;;;;;4.83;100.00;98650.59;5027376;28;20067;-88
2021/12/24 01:07:40;;;;;;;61.40;26.98;;;;;;;4.85;99.92;98651.28;5024699;28;20033;-87
2021/12/24 01:10:07;;;;;;;65.55;24.85;;;;;;;4.85;100.00;98652.13;5051369;28;20039;-87
2021/12/24 01:12:34;;;;;;;49.25;24.98;;;;;;;4.89;99.90;98649.31;5036585;28;20032;-87
2021/12/24 01:15:00;;;;;;;56.10;25.45;;;;;;;4.90;99.86;98641.44;5038388;28;20052;-88
2021/12/24 01:19:58;;;;;;;48.28;23.48;;;;;;;4.93;99.96;98635.16;5050570;28;20036;-87
2021/12/24 01:38:19;;;;;;;44.40;20.15;;;;;;;5.05;99.57;98637.75;5033317;28;20119;-87
2021/12/24 01:41:07;;;;;;;38.67;19.98;;;;;;;5.08;99.15;98641.91;5031091;28;20071;-88
2021/12/24 01:43:32;;;;;;;37.90;18.58;;;;;;;5.13;99.21;98649.38;5038967;28;20091;-88
2021/12/24 01:45:59;;;;;;;38.55;18.77;;;;;;;5.17;98.98;98640.41;5024020;28;20037;-88
2021/12/24 01:48:25;;;;;;;35.38;17.65;;;;;;;5.20;98.76;98628.03;5046079;28;20100;-88
2021/12/24 01:50:54;;;;;;;35.72;17.85;;;;;;;5.19;98.53;98639.38;5032539;28;20072;-88
2021/12/24 01:53:21;;;;;;;;;;;;;;;5.22;98.85;98630.50;5042756;28;20147;-88
2021/12/24 01:55:48;;;;;;;30.00;15.77;;;;;;;5.30;98.50;98626.44;5032540;28;19970;-88
2021/12/24 01:58:19;;;;;;;27.77;15.77;;;;;;;5.41;97.95;98625.63;5032535;28;20029;-87
2021/12/24 02:00:46;;;;;;;27.23;14.73;;;;;;;5.44;97.52;98620.22;5026732;28;20021;-87
2021/12/24 02:03:13;;;;;;;27.88;15.50;;;;;;;5.45;97.79;98624.50;5032093;28;20473;-87
2021/12/24 02:05:40;;;;;;;24.80;14.45;;;;;;;5.50;96.87;98622.38;5023149;28;20107;-88
2021/12/24 02:08:08;;;;;;;26.60;14.35;;;;;;;5.56;96.85;98610.69;5022324;28;20342;-88
2021/12/24 02:10:34;;;;;;;25.23;14.90;;;;;;;5.60;96.31;98638.16;5032458;28;20198;-89
2021/12/24 02:13:00;;;;;;;25.10;14.23;;;;;;;5.61;96.36;98616.41;5036937;28;20026;-87
2021/12/24 02:28:39;;;;;;;30.17;16.27;;;;;;;5.63;96.27;98613.66;5048639;28;20051;-88
2021/12/24 02:31:11;;;;;;;27.98;16.20;;;;;;;5.65;96.70;98611.81;5021366;28;20416;-87
2021/12/24 02:33:37;;;;;;;31.70;16.30;;;;;;;5.61;96.79;98603.41;5025873;28;20025;-87
2021/12/24 02:36:03;;;;;;;29.42;16.67;;;;;;;5.65;96.73;98606.59;5014839;28;20335;-87
2021/12/24 02:38:29;;;;;;;25.55;15.82;;;;;;;5.69;96.52;98601.06;5034552;28;20029;-88
2021/12/24 02:40:55;;;;;;;28.67;16.38;;;;;;;5.70;96.59;98594.06;5031882;28;20043;-87
2021/12/24 02:43:22;;;;;;;23.98;14.82;;;;;;;5.70;96.91;98592.31;5030895;28;20029;-88
2021/12/24 02:45:51;;;;;;;29.50;15.88;;;;;;;5.74;96.30;98605.91;5018388;28;20021;-87
2021/12/24 02:56:18;;;;;;;31.45;18.10;;;;;;;5.81;95.66;98583.72;5047260;28;20183;-87
2021/12/24 02:58:46;;;;;;;26.60;16.55;;;;;;;5.82;95.94;98581.00;5031389;28;20556;-86
2021/12/24 03:01:15;;;;;;;31.38;17.00;;;;;;;5.86;96.25;98596.34;5048122;28;20122;-86
2021/12/24 03:03:43;;;;;;;33.92;17.27;;;;;;;5.88;95.76;98579.69;5047737;28;20160;-88
2021/12/24 03:06:09;;;;;;;27.73;16.17;;;;;;;5.88;95.59;98577.09;5032936;28;20029;-87
2021/12/24 03:08:34;;;;;;;27.25;15.57;;;;;;;5.92;95.54;98581.16;5020866;28;20382;-87
2021/12/24 03:11:00;;;;;;;29.17;15.90;;;;;;;5.92;95.97;98578.56;5020679;28;20095;-87
2021/12/24 03:13:45;;;;;;;30.00;16.40;;;;;;;5.93;95.93;98572.44;5022403;28;20029;-88
2021/12/24 03:16:10;;;;;;;29.88;16.80;;;;;;;5.90;96.86;98574.41;5036109;28;20041;-87
2021/12/24 03:18:38;;;;;;;34.40;16.33;;;;;;;5.88;97.14;98574.50;5038991;28;20066;-86
2021/12/24 03:21:16;;;;;;;35.38;18.95;;;;;;;5.86;97.66;98575.56;5021475;28;20387;-87
2021/12/24 03:26:28;;;;;;;33.42;18.00;;;;;;;5.83;98.62;98574.84;5037790;28;20098;-86
2021/12/24 03:28:53;;;;;;;34.00;18.70;;;;;;;5.85;98.47;98571.31;5022439;28;20037;-87
2021/12/24 03:31:18;;;;;;;30.95;17.65;;;;;;;5.85;97.67;98569.53;5042682;28;20102;-86
2021/12/24 03:33:44;;;;;;;34.60;19.23;;;;;;;5.87;98.12;98575.44;5028950;28;20028;-86
2021/12/24 03:36:09;;;;;;;33.30;18.40;;;;;;;5.91;97.88;98581.25;5014347;28;20112;-87
2021/12/24 03:38:35;;;;;;;31.63;17.02;;;;;;;5.95;97.34;98573.13;5046607;28;20058;-87
2021/12/24 03:41:01;;;;;;;32.25;18.13;;;;;;;5.95;97.53;98572.31;5047862;28;20048;-87
2021/12/24 03:43:26;;;;;;;30.33;18.42;;;;;;;5.97;97.95;98568.66;5042637;28;20111;-87
2021/12/24 03:48:23;;;;;;;31.88;18.40;;;;;;;5.93;98.62;98556.81;5047888;28;20020;-87
2021/12/24 03:51:06;;;;;;;28.98;17.45;;;;;;;6.01;97.79;98561.44;5039745;28;20053;-88
2021/12/24 03:56:16;;;;;;;31.50;17.35;;;;;;;6.08;97.30;98549.59;5058773;28;20553;-87
2021/12/24 03:58:45;;;;;;;29.77;16.80;;;;;;;6.12;97.06;98551.03;5048235;28;20211;-88
2021/12/24 04:01:11;;;;;;;26.83;17.02;;;;;;;6.16;96.96;98557.66;5028093;28;20108;-87
2021/12/24 04:03:36;;;;;;;29.30;16.75;;;;;;;6.20;97.00;98553.88;5049990;28;20075;-87
2021/12/24 04:06:02;;;;;;;28.48;15.90;;;;;;;6.24;96.21;98547.50;5052007;28;20456;-86
2021/12/24 04:08:27;;;;;;;25.20;15.02;;;;;;;6.26;96.38;98558.59;5039375;28;20079;-86
2021/12/24 04:10:53;;;;;;;27.45;15.60;;;;;;;6.30;96.98;98544.44;5033453;28;20113;-86
2021/12/24 04:13:18;;;;;;;26.83;15.65;;;;;;;6.31;96.51;98540.03;5033261;28;20512;-87
2021/12/24 04:15:44;;;;;;;28.55;14.60;;;;;;;6.34;96.82;98544.16;5048642;28;20748;-88
2021/12/24 04:18:23;;;;;;;25.58;13.95;;;;;;;6.37;96.59;98554.34;5026074;28;20017;-89
2021/12/24 04:26:17;;;;;;;23.17;12.73;;;;;;;6.47;96.28;98545.69;5035661;28;20500;-88
2021/12/24 04:28:45;;;;;;;21.67;12.93;;;;;;;6.51;96.36;98543.69;5017103;28;20041;-88
2021/12/24 04:31:11;;;;;;;21.83;12.73;;;;;;;6.53;96.45;98531.38;5053401;28;20465;-86
2021/12/24 04:33:39;;;;;;;23.75;12.73;;;;;;;6.55;96.16;98532.91;5053708;28;20063;-87
2021/12/24 04:36:24;;;;;;;23.90;13.10;;;;;;;6.61;95.89;98530.78;5034795;28;20101;-88
2021/12/24 05:03:09;;;;;;;40.75;18.92;;;;;;;6.87;95.98;98521.72;5036924;28;20083;-87
2021/12/24 05:05:48;;;;;;;30.58;18.08;;;;;;;6.89;96.04;98524.19;5033585;28;20029;-87
2021/12/24 05:08:22;;;;;;;35.55;18.85;;;;;;;6.86;96.66;98529.63;5045133;28;20062;-88
2021/12/24 05:10:51;;;;;;;35.22;18.27;;;;;;;6.84;97.38;98532.38;5046850;28;20120;-87
2021/12/24 05:13:19;;;;;;;37.60;18.85;;;;;;;6.79;97.70;98524.13;5014712;28;20123;-87
2021/12/24 05:15:48;;;;;;;40.53;20.63;;;;;;;6.77;97.98;98526.00;5033815;28;20115;-87
2021/12/24 05:23:24;;;;;;;44.78;22.77;;;;;;;6.73;98.29;98530.63;5048909;28;20382;-87
2021/12/24 05:25:52;;;;;;;40.10;21.63;;;;;;;6.74;98.28;98527.06;5024190;28;20025;-88
2021/12/24 05:28:19;;;;;;;43.93;21.17;;;;;;;6.72;98.35;98530.75;5037337;28;20099;-88
2021/12/24 05:30:45;;;;;;;39.45;19.58;;;;;;;6.76;98.39;98529.56;5024219;28;20021;-88
2021/12/24 05:33:14;;;;;;;45.78;20.33;;;;;;;6.75;98.15;98525.31;5039024;28;20085;-87
2021/12/24 05:35:40;;;;;;;40.60;22.15;;;;;;;6.81;97.68;98522.19;5032407;28;20029;-88
2021/12/24 05:38:08;;;;;;;41.58;19.77;;;;;;;6.84;97.71;98524.56;5028777;28;20056;-87
2021/12/24 05:40:33;;;;;;;37.27;20.17;;;;;;;6.83;97.71;98522.91;5025228;28;20029;-87
2021/12/24 05:42:59;;;;;;;40.03;19.40;;;;;;;6.86;97.39;98516.63;5045307;28;20044;-89
2021/12/24 05:45:25;;;;;;;41.65;19.98;;;;;;;6.85;97.11;98522.78;5028367;28;20028;-89
2021/12/24 05:47:51;;;;;;;35.88;20.17;;;;;;;6.86;97.59;98524.44;5028953;28;20040;-89
2021/12/24 05:50:16;;;;;;;41.47;19.10;;;;;;;6.89;96.82;98512.00;5044450;28;20486;-89
2021/12/24 05:52:42;;;;;;;37.45;19.65;;;;;;;6.91;96.78;98514.47;5025433;28;20112;-87
2021/12/24 05:55:08;;;;;;;34.97;18.95;;;;;;;6.91;96.64;98512.69;5028061;28;20029;-88
2021/12/24 05:57:34;;;;;;;35.28;18.27;;;;;;;6.90;97.13;98511.06;5045662;28;20489;-89
2021/12/24 06:00:04;;;;;;;33.58;18.85;;;;;;;6.94;96.41;98511.63;5034723;28;20108;-89
2021/12/24 06:02:33;;;;;;;37.70;18.83;;;;;;;6.96;96.71;98514.94;5026474;28;20044;-89
2021/12/24 06:04:59;;;;;;;36.83;18.80;;;;;;;7.01;96.21;98520.63;5013559;28;20034;-89
2021/12/24 06:07:24;;;;;;;31.63;18.20;;;;;;;7.04;95.72;98512.53;5039424;28;20029;-90
2021/12/24 06:09:49;;;;;;;33.25;17.85;;;;;;;7.08;95.63;98502.69;5031616;28;20029;-90
2021/12/24 06:12:15;;;;;;;34.65;17.50;;;;;;;7.11;95.21;98510.25;5032190;28;20102;-88
2021/12/24 06:14:42;;;;;;;39.08;18.13;;;;;;;7.13;95.07;98517.00;5035046;28;20068;-90
2021/12/24 06:17:14;;;;;;;32.97;17.13;;;;;;;7.17;95.25;98497.56;5052477;28;20057;-89
2021/12/24 06:19:40;;;;;;;30.55;15.98;;;;;;;7.20;94.59;98505.13;5029193;28;20061;-88
2021/12/24 06:22:05;;;;;;;28.45;16.27;;;;;;;7.21;94.92;98506.78;5026498;28;20029;-88
2021/12/24 06:24:31;;;;;;;31.27;15.95;;;;;;;7.27;94.63;98502.84;5053190;28;20097;-89
2021/12/24 06:26:57;;;;;;;29.17;15.55;;;;;;;7.32;94.61;98515.50;5034731;28;20041;-88
2021/12/24 06:29:22;;;;;;;32.78;15.52;;;;;;;7.31;95.00;98512.06;5020780;28;20055;-88
2021/12/24 06:31:48;;;;;;;29.40;16.08;;;;;;;7.35;94.69;98510.03;5033602;28;20084;-89
2021/12/24 06:34:14;;;;;;;30.67;15.95;;;;;;;7.34;94.36;98514.44;5032328;28;20030;-89
2021/12/24 06:36:44;;;;;;;27.83;15.10;;;;;;;7.36;94.19;98506.47;5049482;28;20111;-88
2021/12/24 06:39:10;;;;;;;24.20;14.27;;;;;;;7.35;94.54;98503.03;5032260;28;20044;-85
2021/12/24 06:41:36;;;;;;;24.35;14.38;;;;;;;7.33;94.33;98496.31;5030162;28;20033;-88
2021/12/24 06:44:04;;;;;;;24.83;13.77;;;;;;;7.41;94.27;98499.91;5030995;28;20044;-88
2021/12/24 06:46:30;;;;;;;25.50;12.55;;;;;;;7.43;94.07;98498.03;5033054;28;20033;-88
2021/12/24 06:49:00;;;;;;;21.70;13.07;;;;;;;7.44;94.07;98494.44;5031040;28;20025;-88
2021/12/24 06:51:29;;;;;;;21.33;12.00;;;;;;;7.46;93.47;98503.00;5037350;28;20045;-89
2021/12/24 06:53:57;;;;;;;21.08;12.57;;;;;;;7.47;93.63;98491.59;5034694;28;20029;-88
2021/12/24 06:56:23;;;;;;;25.10;12.23;;;;;;;7.55;93.45;98498.78;5033556;28;20128;-89
2021/12/24 06:58:49;;;;;;;21.70;11.77;;;;;;;7.60;93.07;98493.16;5015880;28;20036;-90
2021/12/24 07:01:15;;;;;;;20.88;11.05;;;;;;;7.62;92.87;98493.88;5028048;28;20413;-89
2021/12/24 07:03:42;;;;;;;19.13;9.45;;;;;;;7.62;92.63;98499.94;5024713;28;20327;-89
2021/12/24 07:06:08;;;;;;;17.40;9.95;;;;;;;7.65;92.75;98498.84;5014157;28;20024;-88
2021/12/24 07:08:37;;;;;;;16.63;10.15;;;;;;;7.67;92.53;98502.13;5015324;28;20041;-91
2021/12/24 07:11:03;;;;;;;20.10;10.30;;;;;;;7.69;92.25;98487.19;5023555;28;20033;-90
2021/12/24 07:13:29;;;;;;;17.85;10.27;;;;;;;7.71;92.40;98495.72;5025240;28;20034;-89
2021/12/24 07:15:54;;;;;;;17.83;10.15;;;;;;;7.74;92.27;98505.88;5021306;28;20413;-88
2021/12/24 07:18:30;;;;;;;17.63;9.45;;;;;;;7.73;92.20;98519.91;5042603;28;20032;-87
2021/12/24 07:20:56;;;;;;;16.48;8.60;;;;;;;7.80;91.93;98505.38;5032171;28;20037;-87
2021/12/24 07:23:21;;;;;;;21.48;9.40;;;;;;;7.83;91.71;98507.75;5025891;28;20314;-87
2021/12/24 07:25:49;;;;;;;14.90;7.45;;;;;;;7.88;91.26;98512.56;5022409;28;20449;-87
2021/12/24 07:28:15;;;;;;;16.73;8.85;;;;;;;7.89;91.06;98528.06;5048400;28;20028;-87
2021/12/24 07:30:43;;;;;;;14.15;7.65;;;;;;;7.92;90.84;98529.63;5031972;28;20016;-86
2021/12/24 07:33:09;;;;;;;16.10;7.35;;;;;;;7.93;90.85;98508.59;5026422;28;20021;-87
2021/12/24 07:35:34;;;;;;;15.13;8.20;;;;;;;7.95;91.00;98506.69;5045725;28;20137;-88
2021/12/24 07:38:00;;;;;;;13.85;8.10;;;;;;;7.96;90.44;98513.56;5048206;28;20115;-88
2021/12/24 07:40:27;;;;;;;15.05;7.75;;;;;;;7.98;90.28;98518.66;5023137;28;20045;-87
2021/12/24 07:42:55;;;;;;;15.93;7.82;;;;;;;8.04;89.89;98517.31;5046939;28;20039;-86
2021/12/24 07:45:21;;;;;;;14.32;7.65;;;;;;;8.06;89.79;98513.63;5031930;28;20037;-87
2021/12/24 07:48:06;;;;;;;12.68;7.20;;;;;;;8.08;89.57;98526.53;5049452;28;20029;-87
2021/12/24 07:52:57;;;;;;;13.35;8.07;;;;;;;8.10;89.33;98511.56;5047838;28;20554;-86
2021/12/24 07:55:25;;;;;;;12.35;7.65;;;;;;;8.08;89.80;98516.91;5032429;28;20037;-87
2021/12/24 07:57:52;;;;;;;11.52;7.07;;;;;;;8.08;89.76;98513.47;5048338;28;20094;-87
2021/12/24 08:00:19;;;;;;;13.90;7.40;;;;;;;8.10;89.34;98512.41;5030969;28;20056;-86
2021/12/24 08:02:46;;;;;;;16.58;6.75;;;;;;;8.13;89.09;98511.31;5027460;28;20219;-87
2021/12/24 08:05:18;;;;;;;15.63;7.55;;;;;;;8.13;89.04;98508.69;5028279;28;20036;-87
2021/12/24 08:07:44;;;;;;;12.68;6.68;;;;;;;8.18;88.84;98498.69;5047075;28;20370;-89
2021/12/24 08:10:24;;;;;;;;;;;;;;;;;;;;;
2021/12/24 08:12:51;;;;;;;13.75;7.13;;;;;;;8.23;88.66;98493.88;5052596;28;20035;-90
2021/12/24 08:15:17;;;;;;;10.82;6.10;;;;;;;8.24;88.61;98492.94;5035340;28;20033;-92
2021/12/24 08:17:44;;;;;;;10.68;5.93;;;;;;;8.28;88.31;98498.72;5036756;28;20037;-90
2021/12/24 08:20:12;;;;;;;11.02;5.53;;;;;;;8.30;88.51;98504.63;5052468;28;20044;-90
2021/12/24 08:22:38;;;;;;;11.38;5.85;;;;;;;8.33;87.82;98523.47;5036021;28;20120;-90
2021/12/24 08:25:07;;;;;;;8.70;5.32;;;;;;;8.35;87.87;98497.25;5021461;28;20033;-90
2021/12/24 08:27:41;;;;;;;12.98;6.22;;;;;;;8.37;88.29;98509.22;5024011;28;20082;-90
2021/12/24 08:30:08;;;;;;;8.88;4.95;;;;;;;8.38;87.90;98516.13;5041183;28;20055;-89
2021/12/24 08:32:41;;;;;;;9.45;5.65;;;;;;;8.42;87.53;98508.84;5054914;28;20127;-88
2021/12/24 08:35:12;;;;;;;9.65;5.28;;;;;;;8.44;87.50;98515.56;5032023;28;20312;-88
2021/12/24 08:37:38;;;;;;;9.57;5.10;;;;;;;8.45;87.41;98504.19;5036124;28;20033;-87
2021/12/24 08:40:05;;;;;;;10.23;5.25;;;;;;;8.46;87.20;98511.03;5054476;28;20506;-87
2021/12/24 08:42:30;;;;;;;7.63;4.82;;;;;;;8.43;88.10;98510.50;5032205;28;20105;-87
2021/12/24 08:44:56;;;;;;;9.93;5.00;;;;;;;8.41;88.01;98510.59;5051332;28;20375;-87
2021/12/24 08:47:21;;;;;;;12.77;5.53;;;;;;;8.40;87.99;98521.19;5051947;28;20037;-88
2021/12/24 08:49:47;;;;;;;10.70;5.13;;;;;;;8.41;87.92;98525.44;5025129;28;20511;-86
2021/12/24 08:52:16;;;;;;;8.20;4.35;;;;;;;8.42;87.98;98517.50;5047634;28;20100;-88
2021/12/24 08:54:42;;;;;;;8.73;4.32;;;;;;;8.46;87.54;98518.88;5035424;28;20025;-87
2021/12/24 08:57:08;;;;;;;8.90;4.30;;;;;;;8.45;87.67;98519.84;5046701;28;20024;-88
2021/12/24 08:59:35;;;;;;;10.40;4.78;;;;;;;8.47;87.53;98519.69;5039407;28;20033;-88
2021/12/24 09:02:03;;;;;;;7.20;4.38;;;;;;;8.49;87.88;98517.78;5030886;28;20056;-87
2021/12/24 09:04:28;;;;;;;11.60;4.30;;;;;;;8.50;87.06;98542.13;5017883;28;20025;-87
2021/12/24 09:06:54;;;;;;;9.23;4.55;;;;;;;8.53;86.87;98537.47;5032300;28;20549;-87
2021/12/24 09:09:19;;;;;;;8.88;4.30;;;;;;;8.62;85.96;98520.16;5033998;28;20108;-87
2021/12/24 09:11:49;;;;;;;7.43;3.97;;;;;;;8.66;85.97;98537.22;5029446;28;20106;-87
2021/12/24 09:14:18;;;;;;;7.00;4.00;;;;;;;8.72;85.54;98529.66;5024886;28;20061;-89
2021/12/24 09:16:46;;;;;;;7.70;4.05;;;;;;;8.79;85.10;98524.75;5050460;28;20049;-87
2021/12/24 09:19:16;;;;;;;9.02;4.53;;;;;;;8.82;84.92;98519.22;5030087;28;20036;-85
2021/12/24 09:21:41;;;;;;;8.13;3.97;;;;;;;8.86;84.26;98515.41;5034222;28;20124;-87
2021/12/24 09:24:08;;;;;;;7.93;3.55;;;;;;;8.92;84.22;98525.28;5028507;28;20049;-86
2021/12/24 09:26:38;;;;;;;6.88;3.72;;;;;;;8.99;83.91;98540.44;5048867;28;20474;-86
2021/12/24 09:29:06;;;;;;;8.63;3.85;;;;;;;9.03;83.52;98524.34;5019773;28;20048;-86
2021/12/24 09:31:33;;;;;;;8.40;3.80;;;;;;;9.09;83.41;98517.75;5038935;28;20041;-87
2021/12/24 09:33:58;;;;;;;10.13;3.92;;;;;;;9.10;82.98;98511.56;5024415;28;20032;-86
2021/12/24 09:36:26;;;;;;;7.00;3.08;;;;;;;9.16;82.89;98505.78;5049595;28;20029;-87
2021/12/24 09:38:53;;;;;;;6.13;3.30;;;;;;;9.18;82.78;98519.53;5018354;28;20374;-87
2021/12/24 09:41:20;;;;;;;7.88;3.50;;;;;;;9.20;82.19;98518.44;5020759;28;20041;-87
2021/12/24 09:43:48;;;;;;;8.05;3.45;;;;;;;9.26;82.69;98521.47;5031348;28;20041;-87
2021/12/24 09:46:14;;;;;;;5.80;3.22;;;;;;;9.29;82.11;98516.78;5025049;28;20037;-88
2021/12/24 09:48:41;;;;;;;6.65;2.85;;;;;;;9.31;82.14;98535.78;5025837;28;20024;-86
2021/12/24 09:51:11;;;;;;;7.60;3.00;;;;;;;9.33;81.69;98514.72;5020502;28;20124;-88
2021/12/24 09:53:37;;;;;;;6.50;3.55;;;;;;;9.31;81.89;98516.66;5027975;28;20079;-89
2021/12/24 09:56:06;;;;;;;8.75;3.58;;;;;;;9.36;81.25;98511.81;5019207;28;20038;-88
2021/12/24 09:58:33;;;;;;;10.30;2.92;;;;;;;9.39;81.27;98512.38;5036648;28;20770;-87
2021/12/24 10:01:00;;;;;;;6.70;3.55;;;;;;;9.40;80.96;98527.09;5024841;28;20036;-89
2021/12/24 10:03:37;;;;;;;6.07;3.08;;;;;;;9.37;80.97;98513.47;5049967;28;20016;-87
2021/12/24 10:06:03;;;;;;;6.65;3.35;;;;;;;9.31;80.76;98512.25;5043081;28;20056;-83
2021/12/24 10:08:30;;;;;;;11.68;2.90;;;;;;;9.28;80.73;98509.09;5027646;28;20029;-87
2021/12/24 10:11:12;;;;;;;5.78;2.92;;;;;;;9.27;80.78;98523.09;5046581;28;20138;-88
2021/12/24 10:13:43;;;;;;;6.85;2.85;;;;;;;9.25;80.99;98511.97;5026987;28;20033;-87
2021/12/24 10:16:16;;;;;;;5.13;2.80;;;;;;;9.24;80.45;98523.41;5026442;28;20049;-87
2021/12/24 10:18:47;;;;;;;6.07;3.05;;;;;;;9.20;80.73;98504.53;5028836;28;20135;-87
2021/12/24 10:21:32;;;;;;;5.75;3.08;;;;;;;9.22;80.86;98513.06;5033475;28;20112;-86
2021/12/24 10:24:12;;;;;;;4.78;3.03;;;;;;;9.21;80.80;98507.00;5050069;28;20041;-89
2021/12/24 10:26:52;;;;;;;6.28;2.88;;;;;;;9.21;80.56;98499.16;5029712;28;20028;-89
2021/12/24 10:29:22;;;;;;;6.00;3.25;;;;;;;9.20;80.95;98499.31;5031198;28;20025;-88
2021/12/24 10:31:54;;;;;;;6.25;3.40;;;;;;;9.19;80.40;98500.25;5038038;28;20029;-90
2021/12/24 10:34:36;;;;;;;5.63;2.83;;;;;;;9.17;80.67;98462.97;5035309;28;20486;-91
2021/12/24 10:37:22;;;;;;;6.57;2.90;;;;;;;9.17;80.65;98465.59;5042884;28;20041;-88
2021/12/24 10:40:17;;;;;;;6.78;3.90;;;;;;;9.14;80.78;98453.63;5015925;28;20064;-88
2021/12/24 10:42:49;;;;;;;11.35;3.47;;;;;;;9.15;80.54;98465.72;5035348;28;20032;-90
2021/12/24 10:45:17;;;;;;;6.03;3.67;;;;;;;9.15;80.44;98464.91;5035135;28;20049;-91
2021/12/24 10:47:45;;;;;;;9.07;3.63;;;;;;;9.14;80.69;98447.56;5034843;28;20441;-91
2021/12/24 10:55:35;;;;;;;8.75;3.50;;;;;;;9.19;79.95;98451.41;5041448;28;20032;-90
2021/12/24 10:58:05;;;;;;;6.22;3.45;;;;;;;9.20;80.06;98440.00;5056007;28;20079;-91
2021/12/24 11:00:48;;;;;;;8.00;3.47;;;;;;;9.20;79.84;98442.59;5035403;28;20036;-90
2021/12/24 11:03:22;;;;;;;8.10;3.60;;;;;;;9.21;79.91;98438.19;5054336;28;20041;-90
2021/12/24 11:05:54;;;;;;;7.30;3.90;;;;;;;9.23;80.11;98423.19;5036492;28;20100;-88
2021/12/24 11:08:27;;;;;;;8.10;3.50;;;;;;;9.21;80.00;98425.94;5035275;28;20087;-90
2021/12/24 11:10:55;;;;;;;11.15;4.05;;;;;;;9.20;79.90;98426.09;5036883;28;20037;-90
2021/12/24 11:13:29;;;;;;;8.38;3.85;;;;;;;9.20;79.79;98436.56;5035761;28;20121;-87
2021/12/24 11:15:59;;;;;;;8.27;3.70;;;;;;;9.21;79.82;98435.59;5038253;28;20037;-86
2021/12/24 11:18:34;;;;;;;8.27;3.60;;;;;;;9.23;79.57;98444.09;5035872;28;20068;-88
2021/12/24 11:21:13;;;;;;;6.28;3.58;;;;;;;9.26;79.24;98443.00;5034859;28;20053;-89
2021/12/24 11:23:44;;;;;;;7.35;4.15;;;;;;;9.27;79.80;98440.25;5032680;28;20045;-89
2021/12/24 11:26:21;;;;;;;8.70;3.92;;;;;;;9.26;79.84;98449.06;5018152;28;20041;-86
2021/12/24 11:28:47;;;;;;;9.48;4.13;;;;;;;9.26;79.20;98459.50;4996495;28;20042;-86
2021/12/24 11:31:28;;;;;;;10.60;4.20;;;;;;;9.31;78.83;98451.28;5007712;28;20030;-88
2021/12/24 11:33:58;;;;;;;9.98;4.05;;;;;;;9.32;78.86;98458.97;5037038;28;20474;-87
2021/12/24 11:36:32;;;;;;;9.98;3.63;;;;;;;9.35;78.95;98465.72;5047409;28;20025;-87
2021/12/24 11:39:00;;;;;;;7.20;3.70;;;;;;;9.36;78.63;98464.75;5053291;28;20049;-88
2021/12/24 11:41:31;;;;;;;8.27;3.55;;;;;;;9.37;78.63;98475.06;5036402;28;20303;-89
2021/12/24 11:43:58;;;;;;;8.32;4.13;;;;;;;9.37;78.52;98472.44;5014833;28;20127;-88
2021/12/24 11:46:25;;;;;;;9.02;4.25;;;;;;;9.38;78.39;98468.03;5036033;28;20095;-89
2021/12/24 11:48:53;;;;;;;10.77;4.47;;;;;;;9.40;78.42;98453.03;5058553;28;20032;-90
2021/12/24 11:51:28;;;;;;;11.95;4.20;;;;;;;9.41;78.41;98471.19;5052450;28;20036;-88
2021/12/24 11:53:58;;;;;;;10.82;4.20;;;;;;;9.42;78.53;98459.78;5037085;28;20094;-91
2021/12/24 11:56:24;;;;;;;10.10;4.53;;;;;;;9.43;77.79;98465.84;5053283;28;20036;-88
2021/12/24 11:58:55;;;;;;;11.20;4.68;;;;;;;9.43;78.04;98458.81;5062419;28;20124;-89
2021/12/24 12:01:24;;;;;;;8.15;4.68;;;;;;;9.44;78.21;98463.06;5046361;28;20079;-87
2021/12/24 12:03:54;;;;;;;7.63;4.10;;;;;;;9.44;78.27;98484.00;5043189;28;20450;-89
2021/12/24 12:06:23;;;;;;;9.10;4.72;;;;;;;9.42;78.27;98480.72;5026391;28;20035;-89
2021/12/24 12:08:51;;;;;;;11.73;4.80;;;;;;;9.40;78.05;98469.53;5052559;28;20044;-90
2021/12/24 12:11:25;;;;;;;10.70;4.40;;;;;;;9.36;78.31;98462.13;5050537;28;20040;-89
2021/12/24 12:14:18;;;;;;;11.77;4.80;;;;;;;9.36;78.55;98481.25;5038382;28;20033;-90
2021/12/24 12:16:57;;;;;;;13.65;4.95;;;;;;;9.35;78.13;98468.34;5038120;28;20061;-88
2021/12/24 12:25:04;;;;;;;13.65;5.03;;;;;;;9.35;78.44;98460.50;5055000;28;20037;-90
2021/12/24 12:27:44;;;;;;;10.65;4.72;;;;;;;9.34;78.45;98475.31;5038406;28;20039;-89
2021/12/24 12:30:31;;;;;;;11.05;4.47;;;;;;;9.33;78.43;98468.44;5062055;28;20033;-88
2021/12/24 12:33:13;;;;;;;10.95;4.10;;;;;;;9.35;78.35;98469.16;5038224;28;20168;-87
2021/12/24 12:35:59;;;;;;;8.40;4.30;;;;;;;9.36;78.13;98467.38;5055858;28;20037;-89
2021/12/24 12:38:34;;;;;;;7.22;3.78;;;;;;;9.32;78.33;98473.84;5073519;28;20049;-90
2021/12/24 12:41:37;;;;;;;11.38;4.63;;;;;;;9.32;78.47;98460.75;5054858;28;20101;-89
2021/12/24 12:44:13;;;;;;;8.60;4.28;;;;;;;9.28;78.29;98459.41;5046688;28;20033;-89
2021/12/24 12:46:41;;;;;;;10.23;5.30;;;;;;;9.27;78.29;98465.56;5055416;28;20065;-90
2021/12/24 12:49:16;;;;;;;15.55;4.72;;;;;;;9.26;77.96;98459.50;5055950;28;20033;-89
2021/12/24 12:51:54;;;;;;;12.50;5.20;;;;;;;9.26;77.78;98464.75;5023763;28;20024;-88
2021/12/24 12:54:43;;;;;;;11.70;4.85;;;;;;;9.25;77.98;98470.94;5056779;28;20047;-87
2021/12/24 12:57:34;;;;;;;12.60;4.93;;;;;;;9.26;78.07;98479.63;5055778;28;20527;-90
2021/12/24 13:00:19;;;;;;;14.38;5.53;;;;;;;9.24;78.26;98460.63;5036391;28;20091;-89
2021/12/24 13:03:06;;;;;;;11.30;5.22;;;;;;;9.21;78.38;98453.88;5055592;28;20106;-89
2021/12/24 13:05:53;;;;;;;21.73;6.80;;;;;;;9.16;78.74;98461.34;5034707;28;20037;-89
2021/12/24 13:08:27;;;;;;;15.82;5.63;;;;;;;9.15;78.55;98457.88;5046213;28;20079;-90
2021/12/24 13:11:04;;;;;;;12.75;5.00;;;;;;;9.12;78.45;98466.03;5039527;28;20164;-90
2021/12/24 13:13:42;;;;;;;26.50;7.85;;;;;;;9.12;78.50;98467.78;5056739;28;20129;-90
2021/12/24 13:16:20;;;;;;;10.23;5.28;;;;;;;9.12;78.27;98479.09;5049058;28;20189;-89
2021/12/24 13:18:54;;;;;;;15.00;5.95;;;;;;;9.13;78.35;98469.44;5035433;28;20029;-90
2021/12/24 13:24:14;;;;;;;12.15;5.43;;;;;;;9.11;78.45;98453.06;5024880;28;20063;-89
2021/12/24 13:27:32;;;;;;;13.02;5.70;;;;;;;9.10;78.31;98456.66;5045686;28;20033;-90
2021/12/24 13:30:09;;;;;;;16.80;5.73;;;;;;;9.08;78.25;98459.38;5031635;28;20040;-89
2021/12/24 13:32:43;;;;;;;17.42;5.57;;;;;;;9.07;78.23;98451.69;5039902;28;20104;-89
2021/12/24 13:35:10;;;;;;;17.85;5.88;;;;;;;9.05;78.53;98461.44;5012909;28;20052;-89
2021/12/24 13:37:35;;;;;;;13.40;5.25;;;;;;;9.03;78.14;98453.75;5030730;28;20052;-89
2021/12/24 13:40:06;;;;;;;9.68;5.30;;;;;;;9.02;78.23;98461.75;5003775;28;20386;-90
2021/12/24 13:42:45;;;;;;;10.18;4.70;;;;;;;9.00;78.24;98453.22;5027076;28;20022;-89
2021/12/24 13:45:11;;;;;;;11.30;5.00;;;;;;;9.00;78.10;98455.81;5038172;28;20025;-90